Friday, February 12, 2016
07:57 UTC
  |  Log In   |  Register Free
Airport Search:

Firelands Community Hospital Nr 2 Airport
(OI87)

Firelands Community Hospital Nr 2 Airport Diagram
No Airport Diagram Available

FAA data valid effective Feb 4 2016 - Mar 31 2016 (unless otherwise noted).

 
 
 
 
 
 
 
 
 
 
 
 
 
 
Current Aviation Weather for OI87

Weather Summary


Current weather conditions are not available for OI87 - The nearest NOAA weather station is at PCW, (8.3 nm NW from OI87)

The most recent METAR observation for OI87 was updated at: 12:53 UTC
METAR for OI87 is not available. Closest METAR is for KPCW 8.3 nm SE
KPCW  (8.3 nm SE)   (most recent observation was updated at 12:07 UTC)
120742Z AUTO 23008KT 10SM FEW045 M07/M12 A3019 RMK AO2 UPE10 $

KLPR  (24.8 nm NW)   (most recent observation was updated at 12:06 UTC)
120653Z AUTO 22004KT 10SM OVC046 M11/M16 A3022 RMK AO2 SLP248 T11111156 TSNO

TAF for OI87 is not available.
GlobalAir.com is loading additional information.
 Current Weather at LPR
11.0 F° (-11.7 C°)

Southwest winds at 9.2 mph
Pressure:
30.24 in
Humidity:
67%
Wind:
Southwest at 9.2 mph
Dew Point:
1.9 F° (-16.7 C°)
Visibility:
10.00 mi
OI87 NOAA Radar




Find All Airport Services Find A Hotel Find A Rental Car Find A Golf Course Find A Restaurant $100 Hamburger



Airport Weather Forecast for OI87

Translated METAR for KPCW (0742 UTC)
METAR:
KPCW 120742Z AUTO 23008KT 10SM FEW045 M07/M12 A3019 RMK AO2 UPE10 $
Conditions at:
KPCW (Erie-Ottawa Intl, OH) observed 0742 UTC 12 February 2016
Temperature:
-7°C (19.4°F)
Dewpoint:
-12°C (10.4°F) [RH = 67.5]
Pressure:
30.19 inches Hg (1022.4 mb)
Winds:
from the SW (230 degrees) at 9.2 mph (8 knots: 4.1 m/s)
Visibility:
10 mile(s)
Ceiling:
at least 12,000 feet AGL
Clouds:
Few Clouds at 4,500 feet AGL
Remarks:
site is un-manned
SOME DATA ABOVE MAY BE INACCURATE!!!
"$" is an indication the sensor requires maintenance
site is automated and HAS a precipitation sensor

Translated TAF for TAF for OI87 is not available. Refer to local area forecast.
FBO's on the Field
FBO Company Facility Photos Services Transportation Aviation Fuel Prices: Prices include tax
Catering Weather Repair Courtesy Rental Type 100LL JetA JetA+ MOGAS 8087
 
Add another FBO Facility Photos Catering Weather Repair Courtesy Rental Type 100LL JetA JetA+ MOGAS 8087
Services Transportation Aviation Fuel Prices: Prices include tax
There are no FBO's currently reporting fuel at OI87. List your FBO now


model-print
model-print
model-print
model-print